Gluecksburg — 9HA3437 — position and weather

sailwx.info

Track history (hours):
 
Tides and Currents Weather Stations Pressure Air Temp Water Temp Dewpoint Dewpoint Depression Visibility Wind Speed Wind Dir Waves Ship Positions

Gluecksburg

Last reported at 2018-Feb-16 11:02 UTC. Time now 2018-Feb-25 08:18 UTC.
Position N 38°44' W 074°60'.
Warning: this ship's position is 8 days out of date.

Length 176 m; draft 8.8 m.

Type: Cargo ship. MMSI: 229600000.

Date/timePositionNaut miles runAvg speedWind from/ knotsBaromVisibWave heightAir tempDewpointWater temp
2018-Feb-16 11:02N 38°44' W 074°60'210.2
2018-Feb-16 10:49N 38°46' W 075°02'3 9.8
2018-Feb-16 10:31N 38°48' W 075°04'4 8.8
2018-Feb-16 10:00N 38°53' W 075°05'714.5
2018-Feb-16 09:30N 38°60' W 075°08'815.6
2018-Feb-16 09:00N 39°07' W 075°13'816.8
2018-Feb-16 08:30N 39°14' W 075°18'917.4
2018-Feb-16 08:01N 39°20' W 075°26'917.1
2018-Feb-16 07:30N 39°27' W 075°33'815.5
2018-Feb-16 07:01N 39°34' W 075°33'713.4
2018-Feb-16 06:30N 39°41' W 075°31'611.3
2018-Feb-16 06:00N 39°46' W 075°28'4 8.4
2018-Feb-16 05:30N 39°49' W 075°24'4 7.1
2018-Feb-16 05:00N 39°51' W 075°20'0 0.3
2018-Feb-16 04:29N 39°51' W 075°20'0 0.0
2018-Feb-16 03:59N 39°51' W 075°20'0 0.0
2018-Feb-16 03:29N 39°51' W 075°20'0 0.0
2018-Feb-16 02:59N 39°51' W 075°20'0 0.0
2018-Feb-16 02:29N 39°51' W 075°20'0 0.0
2018-Feb-16 01:59N 39°51' W 075°20'0 0.0
2018-Feb-16 01:29N 39°51' W 075°20'0 0.0
2018-Feb-15 23:05N 39°51' W 075°20'0 0.0
2018-Feb-15 22:59N 39°51' W 075°20'0 0.0
2018-Feb-15 22:29N 39°51' W 075°20'0 0.0
2018-Feb-15 21:59N 39°51' W 075°20'0 0.0
2018-Feb-15 21:29N 39°51' W 075°20'0 0.0
2018-Feb-15 20:59N 39°51' W 075°20'0 0.0
2018-Feb-15 20:29N 39°51' W 075°20'0 0.0
2018-Feb-15 19:59N 39°51' W 075°20'0 0.0
2018-Feb-15 19:29N 39°51' W 075°20'0 0.0
2018-Feb-15 18:59N 39°51' W 075°20'0 0.0
2018-Feb-15 18:29N 39°51' W 075°20'0 0.0
2018-Feb-15 17:59N 39°51' W 075°20'0 0.0
2018-Feb-15 17:29N 39°51' W 075°20'0 0.0
2018-Feb-15 16:59N 39°51' W 075°20'0 0.0
2018-Feb-15 16:26N 39°51' W 075°20'0 0.0
2018-Feb-15 15:59N 39°51' W 075°20'0 0.0
2018-Feb-15 15:29N 39°51' W 075°20'0 0.0
2018-Feb-15 14:56N 39°51' W 075°20'0 0.0
2018-Feb-15 14:29N 39°51' W 075°20'0 0.0
2018-Feb-15 13:59N 39°51' W 075°20'0 0.0
2018-Feb-15 13:29N 39°51' W 075°20'0 0.0
2018-Feb-15 12:59N 39°51' W 075°20'0 0.0
2018-Feb-15 12:29N 39°51' W 075°20'0 0.0
2018-Feb-15 11:59N 39°51' W 075°20'0 0.0
2018-Feb-15 11:29N 39°51' W 075°20'0 0.0
2018-Feb-15 10:59N 39°51' W 075°20'0 0.0
2018-Feb-15 10:29N 39°51' W 075°20'0 0.4
2018-Feb-15 10:01N 39°51' W 075°20'2 4.6
2018-Feb-15 09:30N 39°49' W 075°23'5 9.2
2018-Feb-15 09:00N 39°47' W 075°28'510.5
2018-Feb-15 08:31N 39°42' W 075°31'713.1
2018-Feb-15 08:01N 39°36' W 075°34'713.7
2018-Feb-15 07:31N 39°29' W 075°34'714.1
2018-Feb-15 07:01N 39°23' W 075°29'815.0
2018-Feb-15 06:31N 39°18' W 075°22'815.0
2018-Feb-15 06:00N 39°12' W 075°17'714.1
2018-Feb-15 05:31N 39°06' W 075°12'714.9
2018-Feb-15 05:00N 38°59' W 075°08'815.1
2018-Feb-15 04:30N 38°52' W 075°04'5 9.8
2018-Feb-15 04:00N 38°47' W 075°02'106 9.5
2018-Feb-14 16:47N 40°18' W 073°49'3 9.8
2018-Feb-14 16:30N 40°21' W 073°49'5 9.4
2018-Feb-14 16:00N 40°25' W 073°50'4 8.6
2018-Feb-14 15:30N 40°29' W 073°54'612.9
2018-Feb-14 15:01N 40°32' W 074°01'714.1
2018-Feb-14 14:30N 40°38' W 074°03'3 6.7
2018-Feb-14 14:01N 40°41' W 074°01'0 0.3
2018-Feb-14 13:28N 40°41' W 074°01'0 0.0
2018-Feb-14 12:58N 40°41' W 074°01'0 0.0
2018-Feb-14 12:28N 40°41' W 074°01'0 0.0
2018-Feb-14 11:58N 40°41' W 074°01'0 0.0
2018-Feb-14 11:28N 40°41' W 074°01'0 0.0
2018-Feb-14 10:58N 40°41' W 074°01'0 0.0
2018-Feb-14 10:28N 40°41' W 074°01'0 0.0
2018-Feb-14 09:58N 40°41' W 074°01'0 0.0
2018-Feb-14 09:28N 40°41' W 074°01'0 0.0
2018-Feb-14 08:58N 40°41' W 074°01'0 0.0
2018-Feb-14 08:28N 40°41' W 074°01'0 0.0
2018-Feb-14 07:58N 40°41' W 074°01'0 0.0
2018-Feb-14 07:28N 40°41' W 074°01'0 0.0
2018-Feb-14 06:58N 40°41' W 074°01'0 0.0
2018-Feb-14 06:28N 40°41' W 074°01'0 0.0
2018-Feb-14 05:58N 40°41' W 074°01'0 0.0
2018-Feb-14 05:28N 40°41' W 074°01'0 0.0
2018-Feb-14 04:58N 40°41' W 074°01'0 0.0
2018-Feb-14 04:28N 40°41' W 074°01'0 0.0
2018-Feb-14 03:58N 40°41' W 074°01'0 0.0
2018-Feb-14 03:28N 40°41' W 074°01'0 0.0
2018-Feb-14 02:58N 40°41' W 074°01'0 0.0
2018-Feb-14 02:28N 40°41' W 074°01'0 0.0
2018-Feb-14 01:58N 40°41' W 074°01'0 0.0
2018-Feb-14 01:28N 40°41' W 074°01'0 0.0
2018-Feb-14 00:58N 40°41' W 074°01'0 0.0
2018-Feb-14 00:28N 40°41' W 074°01'0 0.0
2018-Feb-13 23:58N 40°41' W 074°01'0 0.0
2018-Feb-13 23:28N 40°41' W 074°01'0 0.0
2018-Feb-13 22:58N 40°41' W 074°01'0 0.0
2018-Feb-13 22:28N 40°41' W 074°01'0 0.0
2018-Feb-13 21:58N 40°41' W 074°01'0 0.0
2018-Feb-13 21:28N 40°41' W 074°01'0 0.0
2018-Feb-13 20:58N 40°41' W 074°01'0 0.0
2018-Feb-13 20:28N 40°41' W 074°01'0 0.0
2018-Feb-13 19:58N 40°41' W 074°01'0 0.0
2018-Feb-13 19:28N 40°41' W 074°01'0 0.0
2018-Feb-13 18:58N 40°41' W 074°01'0 0.0
2018-Feb-13 18:28N 40°41' W 074°01'0 0.0
2018-Feb-13 17:58N 40°41' W 074°01'0 0.0
2018-Feb-13 17:28N 40°41' W 074°01'0 0.0
2018-Feb-13 16:58N 40°41' W 074°01'0 0.0
2018-Feb-13 16:28N 40°41' W 074°01'0 0.0
2018-Feb-13 15:58N 40°41' W 074°01'0 0.0
2018-Feb-13 15:28N 40°41' W 074°01'0 0.0
2018-Feb-13 14:58N 40°41' W 074°01'0 0.0
2018-Feb-13 14:28N 40°41' W 074°01'0 0.0
2018-Feb-13 13:58N 40°41' W 074°01'0 0.0
2018-Feb-13 13:28N 40°41' W 074°01'0 0.0
2018-Feb-13 12:58N 40°41' W 074°01'0 0.0
2018-Feb-13 12:31N 40°41' W 074°01'2 3.9
2018-Feb-13 12:00N 40°40' W 074°03'3 5.9
2018-Feb-13 11:30N 40°37' W 074°03'5 9.6
2018-Feb-13 11:00N 40°32' W 074°01'612.6
2018-Feb-13 10:29N 40°29' W 073°54'5 9.4
2018-Feb-13 10:00N 40°27' W 073°49'3 5.9
2018-Feb-13 09:30N 40°25' W 073°45'3 6.1
2018-Feb-13 08:59N 40°24' W 073°42'  
2018-Feb-06 22:15N 09°36' W 079°46'518.3
2018-Feb-06 21:59N 09°32' W 079°49'816.3
2018-Feb-06 21:30N 09°26' W 079°54'4 8.2
2018-Feb-06 21:00N 09°22' W 079°53'0 0.7
2018-Feb-06 20:30N 09°21' W 079°53'0 0.0
2018-Feb-06 20:00N 09°21' W 079°53'0 0.0
2018-Feb-06 19:30N 09°21' W 079°53'0 0.1
2018-Feb-06 19:00N 09°21' W 079°53'0 0.1
2018-Feb-06 18:30N 09°21' W 079°53'0 0.0
2018-Feb-06 18:00N 09°21' W 079°53'0 0.0
2018-Feb-06 17:30N 09°21' W 079°53'0 0.0
2018-Feb-06 17:00N 09°21' W 079°53'0 0.0
2018-Feb-06 16:30N 09°21' W 079°53'0 0.0
2018-Feb-06 16:00N 09°21' W 079°53'0 0.0
2018-Feb-06 15:30N 09°21' W 079°53'0 0.0
2018-Feb-06 15:00N 09°21' W 079°53'0 0.0
2018-Feb-06 14:30N 09°21' W 079°53'0 0.0
2018-Feb-06 14:00N 09°21' W 079°53'0 0.0
2018-Feb-06 13:30N 09°21' W 079°53'0 0.0
2018-Feb-06 13:00N 09°21' W 079°53'0 0.0
2018-Feb-06 12:30N 09°21' W 079°53'0 0.0
2018-Feb-06 12:00N 09°21' W 079°53'0 0.0
2018-Feb-06 11:24N 09°21' W 079°53'  
Track history (hours):
 
Tides and Currents Weather Stations Pressure Air Temp Water Temp Dewpoint Dewpoint Depression Visibility Wind Speed Wind Dir Waves Ship Positions

Gluecksburg

Last reported at 2018-Feb-16 11:02 UTC. Time now 2018-Feb-25 08:18 UTC.
Position N 38°44' W 074°60'.
Warning: this ship's position is 8 days out of date.

Length 176 m; draft 8.8 m.

Type: Cargo ship. MMSI: 229600000.

Date/timePositionNaut miles runAvg speedWind from/ knotsBaromVisibWave heightAir tempDewpointWater temp
2018-Feb-16 11:02N 38°44' W 074°60'210.2
2018-Feb-16 10:49N 38°46' W 075°02'3 9.8
2018-Feb-16 10:31N 38°48' W 075°04'4 8.8
2018-Feb-16 10:00N 38°53' W 075°05'714.5
2018-Feb-16 09:30N 38°60' W 075°08'815.6
2018-Feb-16 09:00N 39°07' W 075°13'816.8
2018-Feb-16 08:30N 39°14' W 075°18'917.4
2018-Feb-16 08:01N 39°20' W 075°26'917.1
2018-Feb-16 07:30N 39°27' W 075°33'815.5
2018-Feb-16 07:01N 39°34' W 075°33'713.4
2018-Feb-16 06:30N 39°41' W 075°31'611.3
2018-Feb-16 06:00N 39°46' W 075°28'4 8.4
2018-Feb-16 05:30N 39°49' W 075°24'4 7.1
2018-Feb-16 05:00N 39°51' W 075°20'0 0.3
2018-Feb-16 04:29N 39°51' W 075°20'0 0.0
2018-Feb-16 03:59N 39°51' W 075°20'0 0.0
2018-Feb-16 03:29N 39°51' W 075°20'0 0.0
2018-Feb-16 02:59N 39°51' W 075°20'0 0.0
2018-Feb-16 02:29N 39°51' W 075°20'0 0.0
2018-Feb-16 01:59N 39°51' W 075°20'0 0.0
2018-Feb-16 01:29N 39°51' W 075°20'0 0.0
2018-Feb-15 23:05N 39°51' W 075°20'0 0.0
2018-Feb-15 22:59N 39°51' W 075°20'0 0.0
2018-Feb-15 22:29N 39°51' W 075°20'0 0.0
2018-Feb-15 21:59N 39°51' W 075°20'0 0.0
2018-Feb-15 21:29N 39°51' W 075°20'0 0.0
2018-Feb-15 20:59N 39°51' W 075°20'0 0.0
2018-Feb-15 20:29N 39°51' W 075°20'0 0.0
2018-Feb-15 19:59N 39°51' W 075°20'0 0.0
2018-Feb-15 19:29N 39°51' W 075°20'0 0.0
2018-Feb-15 18:59N 39°51' W 075°20'0 0.0
2018-Feb-15 18:29N 39°51' W 075°20'0 0.0
2018-Feb-15 17:59N 39°51' W 075°20'0 0.0
2018-Feb-15 17:29N 39°51' W 075°20'0 0.0
2018-Feb-15 16:59N 39°51' W 075°20'0 0.0
2018-Feb-15 16:26N 39°51' W 075°20'0 0.0
2018-Feb-15 15:59N 39°51' W 075°20'0 0.0
2018-Feb-15 15:29N 39°51' W 075°20'0 0.0
2018-Feb-15 14:56N 39°51' W 075°20'0 0.0
2018-Feb-15 14:29N 39°51' W 075°20'0 0.0
2018-Feb-15 13:59N 39°51' W 075°20'0 0.0
2018-Feb-15 13:29N 39°51' W 075°20'0 0.0
2018-Feb-15 12:59N 39°51' W 075°20'0 0.0
2018-Feb-15 12:29N 39°51' W 075°20'0 0.0
2018-Feb-15 11:59N 39°51' W 075°20'0 0.0
2018-Feb-15 11:29N 39°51' W 075°20'0 0.0
2018-Feb-15 10:59N 39°51' W 075°20'0 0.0
2018-Feb-15 10:29N 39°51' W 075°20'0 0.4
2018-Feb-15 10:01N 39°51' W 075°20'2 4.6
2018-Feb-15 09:30N 39°49' W 075°23'5 9.2
2018-Feb-15 09:00N 39°47' W 075°28'510.5
2018-Feb-15 08:31N 39°42' W 075°31'713.1
2018-Feb-15 08:01N 39°36' W 075°34'713.7
2018-Feb-15 07:31N 39°29' W 075°34'714.1
2018-Feb-15 07:01N 39°23' W 075°29'815.0
2018-Feb-15 06:31N 39°18' W 075°22'815.0
2018-Feb-15 06:00N 39°12' W 075°17'714.1
2018-Feb-15 05:31N 39°06' W 075°12'714.9
2018-Feb-15 05:00N 38°59' W 075°08'815.1
2018-Feb-15 04:30N 38°52' W 075°04'5 9.8
2018-Feb-15 04:00N 38°47' W 075°02'106 9.5
2018-Feb-14 16:47N 40°18' W 073°49'3 9.8
2018-Feb-14 16:30N 40°21' W 073°49'5 9.4
2018-Feb-14 16:00N 40°25' W 073°50'4 8.6
2018-Feb-14 15:30N 40°29' W 073°54'612.9
2018-Feb-14 15:01N 40°32' W 074°01'714.1
2018-Feb-14 14:30N 40°38' W 074°03'3 6.7
2018-Feb-14 14:01N 40°41' W 074°01'0 0.3
2018-Feb-14 13:28N 40°41' W 074°01'0 0.0
2018-Feb-14 12:58N 40°41' W 074°01'0 0.0
2018-Feb-14 12:28N 40°41' W 074°01'0 0.0
2018-Feb-14 11:58N 40°41' W 074°01'0 0.0
2018-Feb-14 11:28N 40°41' W 074°01'0 0.0
2018-Feb-14 10:58N 40°41' W 074°01'0 0.0
2018-Feb-14 10:28N 40°41' W 074°01'0 0.0
2018-Feb-14 09:58N 40°41' W 074°01'0 0.0
2018-Feb-14 09:28N 40°41' W 074°01'0 0.0
2018-Feb-14 08:58N 40°41' W 074°01'0 0.0
2018-Feb-14 08:28N 40°41' W 074°01'0 0.0
2018-Feb-14 07:58N 40°41' W 074°01'0 0.0
2018-Feb-14 07:28N 40°41' W 074°01'0 0.0
2018-Feb-14 06:58N 40°41' W 074°01'0 0.0
2018-Feb-14 06:28N 40°41' W 074°01'0 0.0
2018-Feb-14 05:58N 40°41' W 074°01'0 0.0
2018-Feb-14 05:28N 40°41' W 074°01'0 0.0
2018-Feb-14 04:58N 40°41' W 074°01'0 0.0
2018-Feb-14 04:28N 40°41' W 074°01'0 0.0
2018-Feb-14 03:58N 40°41' W 074°01'0 0.0
2018-Feb-14 03:28N 40°41' W 074°01'0 0.0
2018-Feb-14 02:58N 40°41' W 074°01'0 0.0
2018-Feb-14 02:28N 40°41' W 074°01'0 0.0
2018-Feb-14 01:58N 40°41' W 074°01'0 0.0
2018-Feb-14 01:28N 40°41' W 074°01'0 0.0
2018-Feb-14 00:58N 40°41' W 074°01'0 0.0
2018-Feb-14 00:28N 40°41' W 074°01'0 0.0
2018-Feb-13 23:58N 40°41' W 074°01'0 0.0
2018-Feb-13 23:28N 40°41' W 074°01'0 0.0
2018-Feb-13 22:58N 40°41' W 074°01'0 0.0
2018-Feb-13 22:28N 40°41' W 074°01'0 0.0
2018-Feb-13 21:58N 40°41' W 074°01'0 0.0
2018-Feb-13 21:28N 40°41' W 074°01'0 0.0
2018-Feb-13 20:58N 40°41' W 074°01'0 0.0
2018-Feb-13 20:28N 40°41' W 074°01'0 0.0
2018-Feb-13 19:58N 40°41' W 074°01'0 0.0
2018-Feb-13 19:28N 40°41' W 074°01'0 0.0
2018-Feb-13 18:58N 40°41' W 074°01'0 0.0
2018-Feb-13 18:28N 40°41' W 074°01'0 0.0
2018-Feb-13 17:58N 40°41' W 074°01'0 0.0
2018-Feb-13 17:28N 40°41' W 074°01'0 0.0
2018-Feb-13 16:58N 40°41' W 074°01'0 0.0
2018-Feb-13 16:28N 40°41' W 074°01'0 0.0
2018-Feb-13 15:58N 40°41' W 074°01'0 0.0
2018-Feb-13 15:28N 40°41' W 074°01'0 0.0
2018-Feb-13 14:58N 40°41' W 074°01'0 0.0
2018-Feb-13 14:28N 40°41' W 074°01'0 0.0
2018-Feb-13 13:58N 40°41' W 074°01'0 0.0
2018-Feb-13 13:28N 40°41' W 074°01'0 0.0
2018-Feb-13 12:58N 40°41' W 074°01'0 0.0
2018-Feb-13 12:31N 40°41' W 074°01'2 3.9
2018-Feb-13 12:00N 40°40' W 074°03'3 5.9
2018-Feb-13 11:30N 40°37' W 074°03'5 9.6
2018-Feb-13 11:00N 40°32' W 074°01'612.6
2018-Feb-13 10:29N 40°29' W 073°54'5 9.4
2018-Feb-13 10:00N 40°27' W 073°49'3 5.9
2018-Feb-13 09:30N 40°25' W 073°45'3 6.1
2018-Feb-13 08:59N 40°24' W 073°42'  
2018-Feb-06 22:15N 09°36' W 079°46'518.3
2018-Feb-06 21:59N 09°32' W 079°49'816.3
2018-Feb-06 21:30N 09°26' W 079°54'4 8.2
2018-Feb-06 21:00N 09°22' W 079°53'0 0.7
2018-Feb-06 20:30N 09°21' W 079°53'0 0.0
2018-Feb-06 20:00N 09°21' W 079°53'0 0.0
2018-Feb-06 19:30N 09°21' W 079°53'0 0.1
2018-Feb-06 19:00N 09°21' W 079°53'0 0.1
2018-Feb-06 18:30N 09°21' W 079°53'0 0.0
2018-Feb-06 18:00N 09°21' W 079°53'0 0.0
2018-Feb-06 17:30N 09°21' W 079°53'0 0.0
2018-Feb-06 17:00N 09°21' W 079°53'0 0.0
2018-Feb-06 16:30N 09°21' W 079°53'0 0.0
2018-Feb-06 16:00N 09°21' W 079°53'0 0.0
2018-Feb-06 15:30N 09°21' W 079°53'0 0.0
2018-Feb-06 15:00N 09°21' W 079°53'0 0.0
2018-Feb-06 14:30N 09°21' W 079°53'0 0.0
2018-Feb-06 14:00N 09°21' W 079°53'0 0.0
2018-Feb-06 13:30N 09°21' W 079°53'0 0.0
2018-Feb-06 13:00N 09°21' W 079°53'0 0.0
2018-Feb-06 12:30N 09°21' W 079°53'0 0.0
2018-Feb-06 12:00N 09°21' W 079°53'0 0.0
2018-Feb-06 11:24N 09°21' W 079°53'  

Dump ship's entire track history